Time;durP1;ratioP1;P1;durP2;ratioP2;P2;SDS_P1;SDS_P2;PMS_P1;PMS_P2;Temp;Humidity;BMP_temperature;BMP_pressure;BME280_temperature;BME280_humidity;BME280_pressure;Samples;Min_cycle;Max_cycle;Signal;HPM_P1;HPM_P2
2023/05/01 00:00:31;;;;;;;10.23;9.52;;;;;;;;;;5000969;28;20042;-52
2023/05/01 00:02:56;;;;;;;10.38;9.77;;;;;;;;;;4998039;28;20468;-53
2023/05/01 00:08:44;;;;;;;10.70;10.07;;;;;;;;;;4994882;28;20124;-60
2023/05/01 00:11:11;;;;;;;10.43;9.82;;;;;;;;;;4999285;28;20125;-54
2023/05/01 00:13:36;;;;;;;10.38;9.70;;;;;;;;;;4998454;28;20030;-54
2023/05/01 00:16:10;;;;;;;9.77;9.18;;;;;;;;;;4999093;28;20044;-53
2023/05/01 00:18:35;;;;;;;18.10;10.35;;;;;;;;;;4995624;28;20233;-53
2023/05/01 00:21:02;;;;;;;10.77;10.07;;;;;;;;;;4999387;28;20552;-60
2023/05/01 00:23:27;;;;;;;10.27;9.60;;;;;;;;;;4996919;28;20476;-61
2023/05/01 00:25:52;;;;;;;10.73;10.07;;;;;;;;;;5002851;28;20080;-53
2023/05/01 00:28:18;;;;;;;10.40;9.55;;;;;;;;;;5000968;28;20053;-61
2023/05/01 00:30:44;;;;;;;9.75;9.15;;;;;;;;;;4999158;28;20041;-61
2023/05/01 00:33:10;;;;;;;10.90;10.20;;;;;;;;;;4997813;28;20538;-61
2023/05/01 00:35:36;;;;;;;11.18;10.38;;;;;;;;;;4997248;28;20038;-52
2023/05/01 00:38:01;;;;;;;10.25;9.55;;;;;;;;;;5000420;28;20053;-52
2023/05/01 00:40:27;;;;;;;11.02;10.32;;;;;;;;;;4997147;28;20046;-61
2023/05/01 00:42:53;;;;;;;10.20;9.60;;;;;;;;;;4999702;28;20034;-60
2023/05/01 00:45:19;;;;;;;9.73;9.13;;;;;;;;;;4997866;28;20049;-61
2023/05/01 00:47:45;;;;;;;10.57;9.88;;;;;;;;;;4996880;28;20041;-61
2023/05/01 00:50:11;;;;;;;9.80;9.20;;;;;;;;;;4998180;28;20053;-61
2023/05/01 00:52:36;;;;;;;10.05;9.45;;;;;;;;;;4996821;28;20041;-61
2023/05/01 00:55:04;;;;;;;9.35;8.75;;;;;;;;;;4996800;28;20041;-54
2023/05/01 00:57:29;;;;;;;9.95;9.35;;;;;;;;;;4999632;28;20038;-61
2023/05/01 00:59:55;;;;;;;9.00;8.40;;;;;;;;;;4999820;28;20530;-60
2023/05/01 01:02:20;;;;;;;9.63;9.02;;;;;;;;;;4997293;28;20081;-54
2023/05/01 01:04:46;;;;;;;9.82;9.23;;;;;;;;;;4996917;28;20420;-61
2023/05/01 01:07:28;;;;;;;9.88;9.27;;;;;;;;;;4998653;28;20124;-51
2023/05/01 01:10:13;;;;;;;10.50;9.90;;;;;;;;;;5001041;28;20373;-51
2023/05/01 01:12:59;;;;;;;11.82;11.13;;;;;;;;;;4996783;28;20103;-60
2023/05/01 01:15:32;;;;;;;11.88;11.18;;;;;;;;;;4998587;28;20041;-54
2023/05/01 01:18:11;;;;;;;13.88;13.05;;;;;;;;;;4990365;28;20372;-55
2023/05/01 01:20:56;;;;;;;12.07;11.38;;;;;;;;;;4997505;28;20468;-61
2023/05/01 01:23:29;;;;;;;11.95;11.25;;;;;;;;;;4997850;28;20044;-54
2023/05/01 01:26:07;;;;;;;12.75;12.05;;;;;;;;;;4997081;28;20033;-53
2023/05/01 01:28:56;;;;;;;13.80;13.00;;;;;;;;;;4996209;28;20129;-61
2023/05/01 01:31:47;;;;;;;13.25;12.45;;;;;;;;;;4959434;28;20081;-53
2023/05/01 01:34:38;;;;;;;12.98;12.15;;;;;;;;;;4998619;28;20129;-61
2023/05/01 01:37:10;;;;;;;13.38;12.57;;;;;;;;;;4999876;28;20033;-52
2023/05/01 01:39:51;;;;;;;14.73;13.82;;;;;;;;;;4997430;28;20042;-60
2023/05/01 01:42:25;;;;;;;14.10;13.30;;;;;;;;;;4982838;28;20038;-53
2023/05/01 01:44:54;;;;;;;15.32;14.43;;;;;;;;;;4994651;28;20029;-52
2023/05/01 01:47:23;;;;;;;15.30;14.40;;;;;;;;;;4999138;28;20041;-60
2023/05/01 01:49:51;;;;;;;15.10;14.25;;;;;;;;;;4998931;28;20057;-49
2023/05/01 01:52:18;;;;;;;17.08;15.43;;;;;;;;;;4997314;28;20069;-60
2023/05/01 01:54:49;;;;;;;15.63;14.73;;;;;;;;;;4997410;28;20045;-61
2023/05/01 01:57:17;;;;;;;16.52;15.55;;;;;;;;;;5001085;28;20121;-60
2023/05/01 01:59:44;;;;;;;16.42;15.52;;;;;;;;;;4984185;28;20546;-53
2023/05/01 02:02:12;;;;;;;16.63;15.00;;;;;;;;;;4999290;28;20120;-60
2023/05/01 02:04:39;;;;;;;18.27;17.27;;;;;;;;;;4995172;28;20034;-52
2023/05/01 02:07:06;;;;;;;15.95;15.05;;;;;;;;;;4999422;28;20042;-51
2023/05/01 02:09:33;;;;;;;16.08;15.18;;;;;;;;;;4998175;28;20042;-60
2023/05/01 02:12:01;;;;;;;17.27;16.27;;;;;;;;;;4998608;28;20084;-54
2023/05/01 02:14:27;;;;;;;18.52;17.48;;;;;;;;;;4996545;28;20099;-53
2023/05/01 02:16:53;;;;;;;16.27;15.38;;;;;;;;;;4996047;28;20546;-60
2023/05/01 02:19:20;;;;;;;17.85;16.85;;;;;;;;;;4997200;28;20038;-53
2023/05/01 02:21:46;;;;;;;19.70;18.58;;;;;;;;;;4997835;28;20539;-53
2023/05/01 02:24:13;;;;;;;18.08;16.98;;;;;;;;;;4979532;28;20039;-50
2023/05/01 02:26:46;;;;;;;19.08;18.02;;;;;;;;;;4997639;28;20029;-53
2023/05/01 02:29:12;;;;;;;18.20;17.15;;;;;;;;;;4997390;28;20468;-50
2023/05/01 02:31:37;;;;;;;18.50;17.40;;;;;;;;;;4994812;28;20107;-60
2023/05/01 02:34:02;;;;;;;16.63;15.63;;;;;;;;;;4996137;28;20125;-51
2023/05/01 02:36:28;;;;;;;16.88;15.93;;;;;;;;;;4995361;28;20443;-60
2023/05/01 02:38:54;;;;;;;16.27;15.38;;;;;;;;;;4997521;28;20034;-60
2023/05/01 02:41:21;;;;;;;17.13;16.13;;;;;;;;;;4996937;28;20040;-60
2023/05/01 02:43:52;;;;;;;15.90;15.00;;;;;;;;;;4996460;28;20057;-60
2023/05/01 02:46:19;;;;;;;16.02;15.13;;;;;;;;;;4997874;28;20365;-51
2023/05/01 02:48:45;;;;;;;16.88;15.88;;;;;;;;;;4978819;28;20049;-60
2023/05/01 02:51:12;;;;;;;15.68;14.77;;;;;;;;;;4996964;28;20120;-60
2023/05/01 02:53:39;;;;;;;17.27;16.27;;;;;;;;;;4990783;28;20049;-52
2023/05/01 02:56:06;;;;;;;16.85;15.93;;;;;;;;;;4976471;28;20053;-60
2023/05/01 02:58:33;;;;;;;16.48;15.52;;;;;;;;;;4996670;28;20030;-60
2023/05/01 03:00:58;;;;;;;15.68;14.77;;;;;;;;;;4999617;28;20029;-53
2023/05/01 03:03:23;;;;;;;16.60;15.45;;;;;;;;;;4995736;28;20099;-50
2023/05/01 03:05:50;;;;;;;13.48;12.70;;;;;;;;;;5000934;28;20065;-60
2023/05/01 03:08:16;;;;;;;15.48;14.52;;;;;;;;;;4994461;28;20034;-60
2023/05/01 03:10:42;;;;;;;14.98;14.13;;;;;;;;;;4997044;28;20146;-49
2023/05/01 03:13:07;;;;;;;14.73;13.90;;;;;;;;;;4998163;28;20045;-60
2023/05/01 03:15:33;;;;;;;13.10;12.32;;;;;;;;;;4996002;28;20042;-52
2023/05/01 03:17:58;;;;;;;12.38;11.63;;;;;;;;;;5001771;28;20716;-60
2023/05/01 03:20:23;;;;;;;13.55;12.75;;;;;;;;;;5001335;28;20037;-60
2023/05/01 03:22:49;;;;;;;13.32;12.55;;;;;;;;;;5002695;28;20030;-60
2023/05/01 03:25:14;;;;;;;12.82;12.02;;;;;;;;;;5000167;28;20069;-52
2023/05/01 03:27:39;;;;;;;12.82;12.07;;;;;;;;;;4999906;28;20068;-52
2023/05/01 03:30:05;;;;;;;11.55;10.85;;;;;;;;;;5000786;28;20100;-60
2023/05/01 03:32:31;;;;;;;12.95;12.15;;;;;;;;;;5000142;28;20459;-53
2023/05/01 03:34:56;;;;;;;12.45;11.73;;;;;;;;;;5000365;28;20034;-53
2023/05/01 03:37:22;;;;;;;10.85;10.15;;;;;;;;;;4998888;28;20391;-60
2023/05/01 03:39:47;;;;;;;11.73;10.98;;;;;;;;;;4998589;28;20441;-50
2023/05/01 03:42:12;;;;;;;12.17;11.47;;;;;;;;;;4998686;28;20038;-60
2023/05/01 03:44:38;;;;;;;12.20;11.50;;;;;;;;;;4983526;28;20535;-54
2023/05/01 03:47:04;;;;;;;11.65;10.85;;;;;;;;;;4999950;28;20057;-60
2023/05/01 03:49:29;;;;;;;11.38;10.68;;;;;;;;;;4999121;28;20345;-60
2023/05/01 03:51:55;;;;;;;11.23;10.52;;;;;;;;;;4982293;28;20057;-60
2023/05/01 03:54:20;;;;;;;12.30;11.30;;;;;;;;;;5001684;28;20478;-53
2023/05/01 03:56:46;;;;;;;10.63;9.93;;;;;;;;;;5002617;28;20041;-60
2023/05/01 03:59:13;;;;;;;11.65;10.95;;;;;;;;;;5000391;28;20065;-60
2023/05/01 04:01:39;;;;;;;11.93;11.20;;;;;;;;;;5000811;28;20104;-51
2023/05/01 04:04:04;;;;;;;10.35;9.70;;;;;;;;;;4999328;28;20041;-51
2023/05/01 04:06:30;;;;;;;9.63;9.02;;;;;;;;;;5000792;28;20034;-53
2023/05/01 04:08:55;;;;;;;10.10;9.50;;;;;;;;;;4999823;28;20034;-50
2023/05/01 04:11:20;;;;;;;11.00;10.27;;;;;;;;;;4999829;28;20038;-53
2023/05/01 04:13:46;;;;;;;10.27;9.68;;;;;;;;;;4996908;28;20415;-50
2023/05/01 04:16:11;;;;;;;10.95;10.18;;;;;;;;;;4997104;28;20468;-53
2023/05/01 04:18:37;;;;;;;9.90;9.30;;;;;;;;;;4999473;28;20145;-60
2023/05/01 04:21:03;;;;;;;11.35;10.65;;;;;;;;;;5001499;28;20046;-58
2023/05/01 04:23:28;;;;;;;9.63;9.02;;;;;;;;;;4999626;28;20645;-51
2023/05/01 04:25:54;;;;;;;9.48;8.88;;;;;;;;;;4984170;28;20848;-54
2023/05/01 04:28:19;;;;;;;10.35;9.65;;;;;;;;;;4997903;28;20038;-59
2023/05/01 04:30:45;;;;;;;9.52;8.93;;;;;;;;;;4999471;28;20037;-60
2023/05/01 04:33:10;;;;;;;9.25;8.65;;;;;;;;;;4998492;28;20030;-60
2023/05/01 04:35:38;;;;;;;10.18;9.52;;;;;;;;;;4998990;28;20073;-52
2023/05/01 04:38:04;;;;;;;9.52;8.93;;;;;;;;;;4997063;28;20041;-53
2023/05/01 04:40:30;;;;;;;10.00;9.40;;;;;;;;;;4997385;28;20048;-52
2023/05/01 04:42:55;;;;;;;10.40;9.70;;;;;;;;;;4998265;28;20033;-59
2023/05/01 04:45:21;;;;;;;9.65;9.05;;;;;;;;;;4999657;28;20099;-60
2023/05/01 04:47:46;;;;;;;9.52;8.93;;;;;;;;;;4999208;28;20116;-60
2023/05/01 04:50:11;;;;;;;10.32;9.73;;;;;;;;;;4999586;28;20058;-60
2023/05/01 04:52:37;;;;;;;10.82;10.13;;;;;;;;;;4997524;28;20101;-60
2023/05/01 04:55:02;;;;;;;10.88;10.18;;;;;;;;;;4999216;28;20068;-60
2023/05/01 04:57:28;;;;;;;10.35;9.75;;;;;;;;;;5000637;28;20061;-60
2023/05/01 04:59:53;;;;;;;10.88;10.15;;;;;;;;;;5002030;28;20041;-49
2023/05/01 05:02:19;;;;;;;10.27;9.65;;;;;;;;;;5003520;28;20053;-52
2023/05/01 05:04:44;;;;;;;9.43;8.82;;;;;;;;;;4996216;28;20034;-49
2023/05/01 05:07:10;;;;;;;10.35;9.65;;;;;;;;;;4999989;28;20038;-52
2023/05/01 05:09:35;;;;;;;9.65;9.05;;;;;;;;;;4996408;28;20049;-52
2023/05/01 05:12:03;;;;;;;10.35;9.65;;;;;;;;;;4997121;28;20129;-54
2023/05/01 05:14:28;;;;;;;9.45;8.75;;;;;;;;;;4996482;28;20040;-49
2023/05/01 05:16:54;;;;;;;9.73;9.13;;;;;;;;;;4998489;28;20034;-52
2023/05/01 05:19:19;;;;;;;10.20;9.50;;;;;;;;;;5000085;28;20041;-51
2023/05/01 05:21:44;;;;;;;9.65;9.05;;;;;;;;;;5001935;28;20117;-54
2023/05/01 05:24:10;;;;;;;9.85;9.25;;;;;;;;;;4999847;28;20660;-51
2023/05/01 05:26:35;;;;;;;9.80;9.20;;;;;;;;;;4983889;28;20348;-52
2023/05/01 05:29:01;;;;;;;9.98;9.38;;;;;;;;;;5000585;28;20479;-50
2023/05/01 05:31:26;;;;;;;9.52;8.93;;;;;;;;;;4998960;28;20114;-51
2023/05/01 05:33:51;;;;;;;11.05;10.00;;;;;;;;;;4998368;28;20073;-50
2023/05/01 05:36:17;;;;;;;10.75;10.07;;;;;;;;;;4998742;28;20132;-53
2023/05/01 05:38:42;;;;;;;11.95;10.95;;;;;;;;;;4998585;28;20062;-49
2023/05/01 05:41:08;;;;;;;11.57;10.80;;;;;;;;;;4997281;28;20034;-51
2023/05/01 05:43:33;;;;;;;12.65;11.85;;;;;;;;;;5000181;28;20042;-53
2023/05/01 05:45:59;;;;;;;13.35;12.55;;;;;;;;;;4999467;28;20684;-52
2023/05/01 05:48:25;;;;;;;13.02;12.27;;;;;;;;;;4998405;28;20040;-51
2023/05/01 05:50:51;;;;;;;12.98;12.13;;;;;;;;;;4995851;28;20448;-53
2023/05/01 05:53:18;;;;;;;11.95;11.25;;;;;;;;;;4998340;28;20030;-50
2023/05/01 05:55:44;;;;;;;12.40;11.60;;;;;;;;;;4997105;28;20133;-54
2023/05/01 05:58:10;;;;;;;13.70;12.88;;;;;;;;;;4997432;28;20031;-54
2023/05/01 06:00:35;;;;;;;11.80;11.10;;;;;;;;;;4995863;28;20038;-52
2023/05/01 06:03:01;;;;;;;12.93;11.98;;;;;;;;;;4997643;28;20056;-53
2023/05/01 06:05:26;;;;;;;12.40;11.60;;;;;;;;;;4998898;28;20045;-53
2023/05/01 06:07:52;;;;;;;12.57;11.88;;;;;;;;;;4998422;28;20121;-52
2023/05/01 06:10:18;;;;;;;13.02;12.23;;;;;;;;;;4998390;28;20038;-54
2023/05/01 06:12:43;;;;;;;13.23;12.43;;;;;;;;;;4986877;28;20069;-55
2023/05/01 06:15:09;;;;;;;13.18;12.27;;;;;;;;;;4998737;28;20061;-52
2023/05/01 06:17:36;;;;;;;15.02;14.15;;;;;;;;;;4996409;28;20042;-54
2023/05/01 06:20:04;;;;;;;14.27;13.35;;;;;;;;;;4979479;28;20053;-54
2023/05/01 06:22:29;;;;;;;14.43;13.63;;;;;;;;;;4997807;28;20048;-53
2023/05/01 06:24:55;;;;;;;13.82;13.02;;;;;;;;;;4996855;28;20030;-55
2023/05/01 06:27:20;;;;;;;15.18;14.27;;;;;;;;;;4995597;28;20030;-52
2023/05/01 06:29:46;;;;;;;15.20;14.30;;;;;;;;;;4998851;28;20033;-52
2023/05/01 06:32:11;;;;;;;15.73;14.82;;;;;;;;;;4998970;28;20452;-55
2023/05/01 06:34:36;;;;;;;15.90;15.00;;;;;;;;;;4996125;28;20038;-54
2023/05/01 06:37:04;;;;;;;14.50;13.68;;;;;;;;;;4997152;28;20053;-60
2023/05/01 06:39:29;;;;;;;16.13;15.23;;;;;;;;;;4998781;28;20617;-55
2023/05/01 06:41:55;;;;;;;15.75;14.85;;;;;;;;;;4998485;28;20076;-53
2023/05/01 06:44:20;;;;;;;15.18;14.27;;;;;;;;;;4998228;28;20113;-52
2023/05/01 06:46:46;;;;;;;16.08;15.07;;;;;;;;;;4997528;28;20030;-54
2023/05/01 06:49:11;;;;;;;14.93;14.02;;;;;;;;;;4996808;28;20045;-60
2023/05/01 06:51:36;;;;;;;13.93;13.13;;;;;;;;;;5001497;28;20649;-54
2023/05/01 06:54:02;;;;;;;14.50;13.70;;;;;;;;;;5000043;28;20597;-60
2023/05/01 06:56:27;;;;;;;13.75;12.95;;;;;;;;;;5001647;28;20112;-60
2023/05/01 06:58:53;;;;;;;14.65;13.73;;;;;;;;;;5002477;28;20034;-59
2023/05/01 07:01:18;;;;;;;16.83;15.82;;;;;;;;;;4996238;28;20138;-49
2023/05/01 07:03:43;;;;;;;15.10;14.25;;;;;;;;;;5000711;28;20052;-50
2023/05/01 07:06:09;;;;;;;16.05;15.15;;;;;;;;;;5003506;28;20038;-53
2023/05/01 07:08:34;;;;;;;16.08;15.18;;;;;;;;;;4997629;28;20491;-51
2023/05/01 07:11:00;;;;;;;16.30;15.30;;;;;;;;;;5001756;28;20420;-59
2023/05/01 07:13:26;;;;;;;16.40;15.50;;;;;;;;;;4998588;28;20038;-59
2023/05/01 07:15:52;;;;;;;15.20;14.30;;;;;;;;;;5001415;28;20111;-59
2023/05/01 07:18:17;;;;;;;12.48;11.77;;;;;;;;;;4999461;28;20144;-59
2023/05/01 07:20:43;;;;;;;13.30;12.50;;;;;;;;;;5001839;28;20148;-60
2023/05/01 07:23:09;;;;;;;12.13;11.43;;;;;;;;;;4999202;28;20726;-53
2023/05/01 07:25:36;;;;;;;11.40;10.70;;;;;;;;;;5001021;28;20038;-50
2023/05/01 07:28:03;;;;;;;11.65;10.93;;;;;;;;;;4999910;28;20363;-50
2023/05/01 07:30:29;;;;;;;10.65;10.05;;;;;;;;;;5001690;28;20062;-51
2023/05/01 07:32:56;;;;;;;11.57;10.68;;;;;;;;;;4990553;28;20072;-58
2023/05/01 07:35:22;;;;;;;14.05;13.07;;;;;;;;;;4998754;28;20561;-56
2023/05/01 07:37:50;;;;;;;12.43;11.63;;;;;;;;;;4999514;28;20025;-58
2023/05/01 07:40:16;;;;;;;12.10;11.40;;;;;;;;;;5001300;28;20096;-52
2023/05/01 07:42:41;;;;;;;11.65;10.90;;;;;;;;;;5000726;28;20042;-51
2023/05/01 07:45:07;;;;;;;11.45;10.65;;;;;;;;;;4998588;28;20126;-58
2023/05/01 07:47:33;;;;;;;12.00;11.20;;;;;;;;;;4999456;28;20563;-50
2023/05/01 07:49:59;;;;;;;12.70;11.93;;;;;;;;;;4988243;28;20096;-54
2023/05/01 07:52:25;;;;;;;13.40;12.45;;;;;;;;;;4997050;28;20081;-56
2023/05/01 07:54:51;;;;;;;12.73;11.90;;;;;;;;;;5000292;28;20407;-55
2023/05/01 07:57:16;;;;;;;12.00;11.30;;;;;;;;;;4989110;28;20049;-50
2023/05/01 07:59:42;;;;;;;11.52;10.82;;;;;;;;;;5001834;28;20034;-53
2023/05/01 08:02:07;;;;;;;12.02;11.25;;;;;;;;;;4998287;28;20110;-59
2023/05/01 08:04:32;;;;;;;12.25;11.45;;;;;;;;;;5000447;28;20089;-60
2023/05/01 08:06:58;;;;;;;12.07;11.38;;;;;;;;;;5000836;28;20468;-53
2023/05/01 08:09:23;;;;;;;11.80;10.80;;;;;;;;;;5000814;28;20579;-59
2023/05/01 08:11:49;;;;;;;11.85;11.00;;;;;;;;;;4998492;28;20112;-59
2023/05/01 08:14:16;;;;;;;11.88;11.18;;;;;;;;;;5001224;28;20030;-59
2023/05/01 08:16:42;;;;;;;11.55;10.85;;;;;;;;;;4999089;28;20030;-61
2023/05/01 08:19:07;;;;;;;11.77;11.07;;;;;;;;;;5000150;28;20092;-61
2023/05/01 08:21:33;;;;;;;12.65;11.80;;;;;;;;;;5002304;28;20551;-59
2023/05/01 08:23:58;;;;;;;11.30;10.60;;;;;;;;;;4996764;28;20599;-61
2023/05/01 08:26:23;;;;;;;12.07;11.35;;;;;;;;;;5000616;28;20044;-60
2023/05/01 08:28:49;;;;;;;12.73;11.93;;;;;;;;;;5001558;28;20077;-60
2023/05/01 08:31:15;;;;;;;13.85;12.77;;;;;;;;;;5002569;28;20034;-60
2023/05/01 08:33:43;;;;;;;12.27;11.57;;;;;;;;;;4983146;28;20882;-52
2023/05/01 08:36:09;;;;;;;12.18;11.38;;;;;;;;;;4997414;28;20045;-54
2023/05/01 08:38:35;;;;;;;12.57;11.68;;;;;;;;;;4998321;28;20145;-60
2023/05/01 08:41:02;;;;;;;13.18;12.30;;;;;;;;;;4999661;28;20069;-58
2023/05/01 08:43:30;;;;;;;13.00;12.20;;;;;;;;;;4996622;28;20045;-59
2023/05/01 08:45:59;;;;;;;12.73;11.98;;;;;;;;;;5000033;28;20115;-53
2023/05/01 08:48:25;;;;;;;13.52;12.63;;;;;;;;;;5000066;28;20046;-50
2023/05/01 08:50:55;;;;;;;13.60;12.80;;;;;;;;;;5000219;28;20378;-53
2023/05/01 08:53:23;;;;;;;14.57;13.67;;;;;;;;;;4996786;28;20037;-54
2023/05/01 08:55:50;;;;;;;13.55;12.70;;;;;;;;;;4998636;28;20546;-52
2023/05/01 08:58:17;;;;;;;14.77;13.88;;;;;;;;;;4999365;28;20045;-53
2023/05/01 09:00:44;;;;;;;13.02;12.23;;;;;;;;;;4996108;28;20111;-59
2023/05/01 09:03:12;;;;;;;12.68;11.85;;;;;;;;;;5000251;28;20039;-60
2023/05/01 09:05:38;;;;;;;14.35;13.45;;;;;;;;;;4999063;28;20123;-59
2023/05/01 09:08:04;;;;;;;14.57;13.68;;;;;;;;;;4997627;28;20072;-55
2023/05/01 09:10:31;;;;;;;13.93;13.10;;;;;;;;;;4999424;28;20041;-52
2023/05/01 09:13:01;;;;;;;14.30;13.50;;;;;;;;;;4996423;28;20137;-54
2023/05/01 09:15:28;;;;;;;13.80;13.00;;;;;;;;;;4997588;28;20041;-54
2023/05/01 09:17:55;;;;;;;13.68;12.88;;;;;;;;;;4994670;28;20818;-53
2023/05/01 09:20:21;;;;;;;13.07;12.27;;;;;;;;;;4999880;28;20037;-53
2023/05/01 09:22:48;;;;;;;13.30;12.50;;;;;;;;;;4997130;28;20042;-60
2023/05/01 09:25:13;;;;;;;13.40;12.60;;;;;;;;;;4999138;28;20046;-60
2023/05/01 09:27:38;;;;;;;12.65;11.90;;;;;;;;;;4998714;28;20038;-59
2023/05/01 09:30:05;;;;;;;11.98;11.27;;;;;;;;;;4999946;28;20036;-59
2023/05/01 09:32:31;;;;;;;13.02;12.23;;;;;;;;;;5000369;28;20026;-59
2023/05/01 09:35:13;;;;;;;13.38;12.57;;;;;;;;;;4996415;28;20096;-60
2023/05/01 09:37:39;;;;;;;12.63;11.85;;;;;;;;;;5000078;28;20099;-60
2023/05/01 09:40:06;;;;;;;12.85;12.05;;;;;;;;;;4997965;28;20411;-55
2023/05/01 09:42:32;;;;;;;14.25;13.25;;;;;;;;;;4999761;28;20109;-55
2023/05/01 09:44:59;;;;;;;13.23;12.43;;;;;;;;;;4985168;28;20128;-58
2023/05/01 09:47:27;;;;;;;13.05;12.25;;;;;;;;;;4995983;28;20044;-60
2023/05/01 09:49:54;;;;;;;13.38;12.57;;;;;;;;;;4994962;28;20532;-60
2023/05/01 09:52:20;;;;;;;12.05;11.35;;;;;;;;;;4998379;28;20045;-60
2023/05/01 09:54:45;;;;;;;13.52;12.63;;;;;;;;;;4999862;28;20034;-60
2023/05/01 09:57:11;;;;;;;13.75;12.75;;;;;;;;;;4998164;28;20049;-60
2023/05/01 09:59:37;;;;;;;13.73;12.93;;;;;;;;;;4996612;28;20443;-60
2023/05/01 10:02:03;;;;;;;12.32;11.60;;;;;;;;;;4997354;28;20037;-60
2023/05/01 10:04:33;;;;;;;13.65;12.82;;;;;;;;;;5001601;28;20096;-60
2023/05/01 10:07:18;;;;;;;15.90;15.00;;;;;;;;;;5000958;28;20088;-56
2023/05/01 10:09:44;;;;;;;16.50;15.52;;;;;;;;;;4993704;28;20098;-54
2023/05/01 10:12:09;;;;;;;17.35;16.35;;;;;;;;;;4997484;28;20430;-53
2023/05/01 10:14:51;;;;;;;16.83;15.88;;;;;;;;;;4998538;28;20096;-59
2023/05/01 10:17:18;;;;;;;17.30;16.30;;;;;;;;;;5001519;28;20034;-53
2023/05/01 10:19:44;;;;;;;16.67;15.73;;;;;;;;;;4978384;28;20048;-53
2023/05/01 10:22:09;;;;;;;19.38;18.30;;;;;;;;;;4995035;28;20034;-58
2023/05/01 10:24:35;;;;;;;20.60;19.48;;;;;;;;;;4996710;28;20034;-52
2023/05/01 10:27:04;;;;;;;21.35;20.20;;;;;;;;;;4998124;28;20100;-59
2023/05/01 10:29:30;;;;;;;21.58;20.38;;;;;;;;;;5000444;28;20121;-59
2023/05/01 10:31:57;;;;;;;22.63;21.35;;;;;;;;;;4998955;28;20030;-59
2023/05/01 10:34:23;;;;;;;23.60;22.30;;;;;;;;;;4997590;28;20102;-52
2023/05/01 10:36:56;;;;;;;26.42;25.05;;;;;;;;;;4995890;28;20341;-59
2023/05/01 10:39:32;;;;;;;26.55;25.15;;;;;;;;;;4996855;28;20085;-59
2023/05/01 10:41:57;;;;;;;27.70;26.20;;;;;;;;;;4997321;28;20190;-54
2023/05/01 10:44:25;;;;;;;27.85;26.38;;;;;;;;;;4998156;28;20093;-53
2023/05/01 10:46:51;;;;;;;27.73;26.25;;;;;;;;;;4990840;28;20030;-59
2023/05/01 10:49:17;;;;;;;26.52;24.98;;;;;;;;;;4990735;28;20481;-60
2023/05/01 10:52:02;;;;;;;25.80;24.42;;;;;;;;;;5001358;28;20033;-60
2023/05/01 10:54:31;;;;;;;25.63;24.23;;;;;;;;;;4997451;28;20027;-60
2023/05/01 10:57:01;;;;;;;28.70;27.10;;;;;;;;;;4996166;28;20129;-53
2023/05/01 11:00:00;;;;;;;25.90;24.52;;;;;;;;;;4997223;28;20033;-55
2023/05/01 11:02:25;;;;;;;25.15;23.55;;;;;;;;;;4997623;28;20042;-59
2023/05/01 11:04:52;;;;;;;26.92;25.50;;;;;;;;;;4996186;28;20027;-59
2023/05/01 11:07:19;;;;;;;26.88;25.15;;;;;;;;;;4998620;28;20112;-59
2023/05/01 11:10:00;;;;;;;26.02;24.65;;;;;;;;;;4994951;28;20038;-59
2023/05/01 11:12:44;;;;;;;28.40;26.92;;;;;;;;;;4992880;28;20038;-59
2023/05/01 11:15:10;;;;;;;27.80;26.30;;;;;;;;;;4994921;28;20603;-59
2023/05/01 11:17:38;;;;;;;28.48;26.85;;;;;;;;;;4989257;28;20088;-60
2023/05/01 11:20:04;;;;;;;27.70;26.20;;;;;;;;;;4996675;28;20041;-59
2023/05/01 11:22:30;;;;;;;31.20;29.20;;;;;;;;;;4981200;28;20153;-60
2023/05/01 11:24:56;;;;;;;26.27;24.67;;;;;;;;;;4993096;28;20192;-59
2023/05/01 11:27:21;;;;;;;27.15;25.70;;;;;;;;;;4998894;28;20758;-59
2023/05/01 11:29:49;;;;;;;24.55;23.25;;;;;;;;;;4991105;28;20025;-60
2023/05/01 11:32:17;;;;;;;30.05;28.48;;;;;;;;;;4995500;28;20119;-60
2023/05/01 11:34:43;;;;;;;33.50;31.77;;;;;;;;;;4994320;28;20045;-61
2023/05/01 11:37:08;;;;;;;26.25;24.83;;;;;;;;;;4998486;28;20395;-60
2023/05/01 11:39:34;;;;;;;25.77;24.38;;;;;;;;;;4998482;28;20468;-59
2023/05/01 11:42:08;;;;;;;25.30;23.98;;;;;;;;;;4999404;28;20430;-59
2023/05/01 11:44:34;;;;;;;26.92;25.52;;;;;;;;;;4996579;28;20030;-60
2023/05/01 11:47:01;;;;;;;26.05;24.23;;;;;;;;;;4999018;28;20037;-61
2023/05/01 11:49:29;;;;;;;25.48;24.08;;;;;;;;;;4999769;28;20047;-59
2023/05/01 11:51:58;;;;;;;22.73;21.52;;;;;;;;;;5004201;28;20034;-60
2023/05/01 11:54:25;;;;;;;25.73;24.33;;;;;;;;;;4997371;28;20050;-60
2023/05/01 11:57:00;;;;;;;23.67;22.42;;;;;;;;;;4999910;28;20037;-60
2023/05/01 11:59:26;;;;;;;22.88;21.65;;;;;;;;;;4999063;28;20390;-60
2023/05/01 12:01:52;;;;;;;21.73;20.52;;;;;;;;;;5001381;28;20034;-60
2023/05/01 12:04:27;;;;;;;20.63;19.52;;;;;;;;;;4996852;28;20045;-58
2023/05/01 12:06:52;;;;;;;22.75;21.48;;;;;;;;;;5001851;28;20141;-58
2023/05/01 12:09:21;;;;;;;24.20;22.90;;;;;;;;;;4999329;28;20105;-58
2023/05/01 12:11:48;;;;;;;22.23;21.02;;;;;;;;;;5003612;28;20121;-60
2023/05/01 12:14:14;;;;;;;29.10;27.27;;;;;;;;;;5001779;28;20073;-60
2023/05/01 12:16:41;;;;;;;22.45;21.25;;;;;;;;;;5003155;28;20052;-61
2023/05/01 12:19:07;;;;;;;25.52;23.98;;;;;;;;;;5002066;28;20073;-61
2023/05/01 12:21:32;;;;;;;23.50;22.25;;;;;;;;;;4999923;28;20050;-61
2023/05/01 12:24:08;;;;;;;31.35;29.65;;;;;;;;;;5001389;28;20064;-61
2023/05/01 12:26:33;;;;;;;22.42;21.20;;;;;;;;;;4987529;28;20462;-60
2023/05/01 12:29:04;;;;;;;24.95;23.60;;;;;;;;;;5004259;28;20065;-58
2023/05/01 12:31:30;;;;;;;24.35;23.05;;;;;;;;;;5000034;28;20034;-59
2023/05/01 12:34:03;;;;;;;23.50;22.20;;;;;;;;;;4997997;28;20208;-58
2023/05/01 12:36:31;;;;;;;31.95;30.13;;;;;;;;;;4999874;28;20061;-59
2023/05/01 12:38:59;;;;;;;24.48;23.17;;;;;;;;;;4994972;28;20042;-54
2023/05/01 12:41:45;;;;;;;27.90;26.42;;;;;;;;;;4980006;28;20030;-53
2023/05/01 12:44:29;;;;;;;26.27;24.88;;;;;;;;;;4997977;28;20365;-53
2023/05/01 12:47:00;;;;;;;22.95;21.73;;;;;;;;;;4997428;28;20038;-53
2023/05/01 12:49:27;;;;;;;25.38;24.00;;;;;;;;;;4999246;28;20098;-52
2023/05/01 12:51:54;;;;;;;30.05;28.17;;;;;;;;;;4998518;28;20060;-49
2023/05/01 12:54:23;;;;;;;24.30;23.00;;;;;;;;;;4998147;28;20510;-50
2023/05/01 12:56:49;;;;;;;23.25;22.05;;;;;;;;;;4997964;28;20475;-52
2023/05/01 12:59:26;;;;;;;26.45;25.05;;;;;;;;;;4996991;28;20467;-59
2023/05/01 13:01:59;;;;;;;22.75;21.52;;;;;;;;;;4998255;28;20045;-59
2023/05/01 13:04:25;;;;;;;28.92;27.42;;;;;;;;;;4997493;28;20188;-60
2023/05/01 13:06:54;;;;;;;20.88;19.67;;;;;;;;;;4980279;28;20045;-53
2023/05/01 13:09:25;;;;;;;21.15;19.95;;;;;;;;;;4998795;28;20574;-53
2023/05/01 13:12:47;;;;;;;21.10;19.92;;;;;;;;;;4997643;28;20037;-53
2023/05/01 13:15:20;;;;;;;21.92;20.73;;;;;;;;;;4995838;28;20559;-53
2023/05/01 13:17:46;;;;;;;20.67;19.55;;;;;;;;;;4986325;28;20490;-60
2023/05/01 13:20:12;;;;;;;21.13;19.83;;;;;;;;;;4997228;28;20037;-50
2023/05/01 13:22:38;;;;;;;21.10;19.95;;;;;;;;;;5000089;28;20040;-60
2023/05/01 13:25:17;;;;;;;22.27;21.08;;;;;;;;;;4997002;28;20895;-53
2023/05/01 13:27:48;;;;;;;22.13;20.92;;;;;;;;;;4992722;28;20049;-60
2023/05/01 13:30:16;;;;;;;22.08;20.88;;;;;;;;;;4986263;28;20053;-52
2023/05/01 13:32:41;;;;;;;24.52;23.13;;;;;;;;;;4993615;28;20030;-53
2023/05/01 13:35:07;;;;;;;22.95;21.65;;;;;;;;;;4997727;28;20404;-53
2023/05/01 13:37:34;;;;;;;26.92;25.33;;;;;;;;;;4983087;28;20081;-51
2023/05/01 13:40:00;;;;;;;24.75;23.40;;;;;;;;;;4995272;28;20088;-60
2023/05/01 13:42:26;;;;;;;23.15;21.88;;;;;;;;;;4992293;28;20034;-60
2023/05/01 13:44:53;;;;;;;29.60;27.83;;;;;;;;;;4994925;28;20034;-53
2023/05/01 13:47:22;;;;;;;30.80;29.17;;;;;;;;;;5000206;28;20088;-50
2023/05/01 13:49:48;;;;;;;32.20;30.52;;;;;;;;;;4996776;28;20038;-51
2023/05/01 13:52:18;;;;;;;33.63;31.83;;;;;;;;;;4997484;28;20049;-50
2023/05/01 13:54:44;;;;;;;33.28;31.52;;;;;;;;;;4995241;28;20074;-50
2023/05/01 13:57:10;;;;;;;31.73;30.05;;;;;;;;;;4997266;28;20034;-60
2023/05/01 13:59:39;;;;;;;30.92;29.30;;;;;;;;;;4998840;28;20044;-60
2023/05/01 14:02:23;;;;;;;29.00;27.48;;;;;;;;;;4997933;28;20129;-60
2023/05/01 14:04:48;;;;;;;26.23;24.75;;;;;;;;;;4998104;28;20343;-60
2023/05/01 14:07:17;;;;;;;26.30;24.73;;;;;;;;;;4996744;28;20064;-52
2023/05/01 14:09:45;;;;;;;24.83;23.42;;;;;;;;;;4997177;28;20049;-50
2023/05/01 14:12:13;;;;;;;22.42;21.23;;;;;;;;;;4999897;28;20053;-52
2023/05/01 14:14:46;;;;;;;16.90;15.90;;;;;;;;;;4997005;28;20109;-51
2023/05/01 14:17:12;;;;;;;16.30;15.30;;;;;;;;;;4995590;28;20128;-52
2023/05/01 14:19:38;;;;;;;14.10;13.18;;;;;;;;;;4995168;28;20061;-54
2023/05/01 14:22:06;;;;;;;12.40;11.70;;;;;;;;;;4998862;28;20030;-54
2023/05/01 14:24:35;;;;;;;12.68;11.88;;;;;;;;;;4998189;28;20041;-53
2023/05/01 14:27:00;;;;;;;13.65;12.85;;;;;;;;;;4995357;28;20788;-52